createdAt,value
2023-03-02T00:00:26.699Z,17.47
2023-03-02T00:03:12.051Z,18.17
2023-03-02T00:05:57.723Z,16.80
2023-03-02T00:08:42.393Z,18.17
2023-03-02T00:11:27.252Z,18.40
2023-03-02T00:14:12.770Z,18.17
2023-03-02T00:16:56.542Z,21.97
2023-03-02T00:19:40.386Z,20.23
2023-03-02T00:22:24.134Z,21.17
2023-03-02T00:25:08.969Z,21.80
2023-03-02T00:27:52.728Z,21.07
2023-03-02T00:30:39.208Z,22.87
2023-03-02T00:33:23.081Z,22.80
2023-03-02T00:36:07.815Z,22.43
2023-03-02T00:38:53.241Z,26.37
2023-03-02T00:41:37.107Z,23.33
2023-03-02T00:44:20.941Z,25.03
2023-03-02T00:47:06.221Z,24.80
2023-03-02T00:49:50.002Z,22.40
2023-03-02T00:52:34.966Z,24.03
2023-03-02T00:55:18.879Z,27.10
2023-03-02T00:58:02.852Z,22.17
2023-03-02T01:00:47.463Z,20.83
2023-03-02T01:03:32.986Z,21.30
2023-03-02T01:06:18.728Z,22.83
2023-03-02T01:09:02.498Z,21.70
2023-03-02T01:11:46.238Z,20.00
2023-03-02T01:14:30.543Z,16.80
2023-03-02T01:17:15.823Z,18.17
2023-03-02T01:20:01.134Z,17.83
2023-03-02T01:22:46.725Z,17.97
2023-03-02T01:25:30.495Z,17.97
2023-03-02T01:28:14.270Z,17.70
2023-03-02T01:30:58.012Z,19.70
2023-03-02T01:33:41.806Z,24.03
2023-03-02T01:36:27.126Z,20.63
2023-03-02T01:39:10.881Z,21.87
2023-03-02T01:41:55.350Z,18.37
2023-03-02T01:44:43.028Z,16.40
2023-03-02T01:47:32.810Z,17.87
2023-03-02T01:50:25.982Z,16.17
2023-03-02T01:53:18.112Z,17.00
2023-03-02T01:56:04.559Z,17.23
2023-03-02T01:58:52.956Z,16.70
2023-03-02T02:01:40.891Z,16.10
2023-03-02T02:04:28.925Z,16.27
2023-03-02T02:07:12.980Z,17.27
2023-03-02T02:09:58.860Z,16.73
2023-03-02T02:12:42.639Z,17.73
2023-03-02T02:15:46.346Z,16.67
2023-03-02T02:18:30.249Z,15.73
2023-03-02T02:21:14.684Z,13.23
2023-03-02T02:24:09.583Z,17.10
2023-03-02T02:26:57.255Z,14.90
2023-03-02T02:29:46.433Z,17.83
2023-03-02T02:32:35.672Z,16.80
2023-03-02T02:35:23.008Z,17.20
2023-03-02T02:38:10.067Z,17.00
2023-03-02T02:40:57.627Z,18.30
2023-03-02T02:43:48.101Z,18.13
2023-03-02T02:46:34.257Z,20.20
2023-03-02T02:49:31.737Z,17.73
2023-03-02T02:52:18.023Z,18.40
2023-03-02T02:55:02.117Z,18.57
2023-03-02T02:57:47.544Z,18.17
2023-03-02T03:00:32.884Z,19.27
2023-03-02T03:03:30.932Z,18.57
2023-03-02T03:06:23.392Z,21.37
2023-03-02T03:09:08.296Z,17.20
2023-03-02T03:11:59.480Z,21.73
2023-03-02T03:14:43.582Z,21.00
2023-03-02T03:17:29.938Z,20.97
2023-03-02T03:20:18.752Z,22.27
2023-03-02T03:23:02.644Z,18.63
2023-03-02T03:25:48.298Z,21.13
2023-03-02T03:28:32.185Z,22.30
2023-03-02T03:31:16.515Z,21.63
2023-03-02T03:34:02.860Z,17.37
2023-03-02T03:36:50.682Z,20.50
2023-03-02T03:39:35.295Z,18.27
2023-03-02T03:42:20.274Z,21.20
2023-03-02T03:45:04.289Z,19.93
2023-03-02T03:47:50.813Z,15.17
2023-03-02T03:50:36.586Z,18.10
2023-03-02T03:53:20.550Z,23.27
2023-03-02T03:56:05.009Z,20.50
2023-03-02T03:58:48.952Z,22.23
2023-03-02T04:01:35.247Z,21.53
2023-03-02T04:04:22.597Z,21.37
2023-03-02T04:07:08.583Z,18.87
2023-03-02T04:10:03.517Z,17.50
2023-03-02T04:12:50.400Z,16.17
2023-03-02T04:15:34.420Z,21.33
2023-03-02T04:18:18.150Z,20.90
2023-03-02T04:21:02.124Z,20.63
2023-03-02T04:23:47.346Z,20.33
2023-03-02T04:26:31.512Z,19.77
2023-03-02T04:29:15.782Z,19.77
2023-03-02T04:31:59.715Z,23.80
2023-03-02T04:34:44.911Z,20.43
2023-03-02T04:37:29.025Z,20.80
2023-03-02T04:40:15.348Z,23.17
2023-03-02T04:42:59.196Z,22.73
2023-03-02T04:45:42.994Z,20.23
2023-03-02T04:48:26.817Z,23.60
2023-03-02T04:51:18.236Z,24.23
2023-03-02T04:54:04.002Z,23.27
2023-03-02T04:56:49.647Z,23.63
2023-03-02T04:59:33.600Z,20.93
2023-03-02T05:02:17.699Z,25.07
2023-03-02T05:05:01.720Z,22.47
2023-03-02T05:07:47.460Z,23.17
2023-03-02T05:10:31.354Z,23.30
2023-03-02T05:13:16.727Z,22.27
2023-03-02T05:16:00.729Z,27.83
2023-03-02T05:18:44.584Z,24.33
2023-03-02T05:21:28.776Z,21.77
2023-03-02T05:24:13.441Z,21.80
2023-03-02T05:26:57.430Z,22.77
2023-03-02T05:29:42.580Z,22.30
2023-03-02T05:32:26.449Z,20.47
2023-03-02T05:35:10.877Z,22.50
2023-03-02T05:37:54.621Z,24.47
2023-03-02T05:40:38.670Z,21.83
2023-03-02T05:43:23.589Z,20.77
2023-03-02T05:46:08.892Z,21.80
2023-03-02T05:48:52.773Z,24.50
2023-03-02T05:51:36.697Z,17.60
2023-03-02T05:54:20.541Z,16.00
2023-03-02T05:57:04.397Z,17.97
2023-03-02T05:59:48.201Z,19.53
2023-03-02T06:02:33.670Z,17.40
2023-03-02T06:05:19.724Z,21.67
2023-03-02T06:08:04.034Z,17.33
2023-03-02T06:10:48.180Z,16.17
2023-03-02T06:13:31.952Z,19.53
2023-03-02T06:16:15.922Z,18.37
2023-03-02T06:19:01.149Z,14.97
2023-03-02T06:21:45.021Z,20.43
2023-03-02T06:24:28.884Z,23.67
2023-03-02T06:27:13.848Z,22.93
2023-03-02T06:29:57.753Z,19.97
2023-03-02T06:32:42.052Z,19.60
2023-03-02T06:35:27.723Z,17.53
2023-03-02T06:38:11.690Z,19.93
2023-03-02T06:40:55.742Z,19.20
2023-03-02T06:43:39.679Z,20.33
2023-03-02T06:46:23.635Z,21.80
2023-03-02T06:49:07.910Z,21.03
2023-03-02T06:51:53.113Z,20.07
2023-03-02T06:54:36.853Z,20.87
2023-03-02T06:57:20.825Z,21.70
2023-03-02T07:00:10.173Z,21.47
2023-03-02T07:02:54.438Z,21.30
2023-03-02T07:05:38.359Z,19.90
2023-03-02T07:08:23.661Z,23.87
2023-03-02T07:11:08.014Z,19.57
2023-03-02T07:13:52.264Z,20.27
2023-03-02T07:16:36.346Z,22.33
2023-03-02T07:19:20.361Z,22.43
2023-03-02T07:22:04.092Z,23.47
2023-03-02T07:24:49.343Z,23.13
2023-03-02T07:27:33.251Z,22.00
2023-03-02T07:30:21.125Z,27.53
2023-03-02T07:33:05.053Z,22.20
2023-03-02T07:35:49.948Z,20.93
2023-03-02T07:38:34.377Z,21.50
2023-03-02T07:41:19.782Z,22.23
2023-03-02T07:44:03.646Z,23.10
2023-03-02T07:46:47.629Z,22.67
2023-03-02T07:49:31.646Z,20.93
2023-03-02T07:52:15.404Z,22.43
2023-03-02T07:54:59.170Z,19.83
2023-03-02T07:57:44.887Z,19.57
2023-03-02T08:00:29.029Z,21.67
2023-03-02T08:03:12.965Z,26.30
2023-03-02T08:05:56.858Z,23.83
2023-03-02T08:08:41.029Z,23.30
2023-03-02T08:11:24.932Z,52.77
2023-03-02T08:14:10.355Z,45.23
2023-03-02T08:16:54.272Z,21.30
2023-03-02T08:19:38.125Z,20.87
2023-03-02T08:22:22.024Z,21.97
2023-03-02T08:25:07.381Z,36.57
2023-03-02T08:27:51.232Z,23.17
2023-03-02T08:30:36.403Z,20.33
2023-03-02T08:33:20.176Z,21.77
2023-03-02T08:36:05.936Z,25.83
2023-03-02T08:38:50.741Z,22.33
2023-03-02T08:41:35.340Z,23.40
2023-03-02T08:44:21.147Z,20.10
2023-03-02T08:47:06.857Z,27.57
2023-03-02T08:49:51.385Z,22.03
2023-03-02T08:52:35.824Z,22.47
2023-03-02T08:55:19.743Z,21.00
2023-03-02T08:58:03.652Z,21.90
2023-03-02T09:00:47.596Z,25.57
2023-03-02T09:03:32.867Z,21.57
2023-03-02T09:06:16.964Z,21.77
2023-03-02T09:09:01.428Z,21.23
2023-03-02T09:11:46.555Z,21.90
2023-03-02T09:14:30.476Z,21.33
2023-03-02T09:17:15.691Z,19.47
2023-03-02T09:20:00.971Z,20.10
2023-03-02T09:22:48.682Z,20.77
2023-03-02T09:25:32.582Z,19.20
2023-03-02T09:28:17.082Z,18.70
2023-03-02T09:31:02.748Z,22.57
2023-03-02T09:33:46.708Z,20.00
2023-03-02T09:36:32.854Z,24.97
2023-03-02T09:39:16.681Z,21.57
2023-03-02T09:42:19.911Z,19.77
2023-03-02T09:45:16.848Z,16.20
2023-03-02T09:48:12.357Z,18.03
2023-03-02T09:51:08.837Z,17.30
2023-03-02T09:54:01.819Z,19.20
2023-03-02T09:56:48.181Z,18.83
2023-03-02T09:59:39.652Z,19.07
2023-03-02T10:02:28.547Z,18.87
2023-03-02T10:05:17.609Z,31.30
2023-03-02T10:08:02.017Z,21.77
2023-03-02T10:10:50.523Z,16.13
2023-03-02T10:13:42.299Z,18.70
2023-03-02T10:16:33.018Z,15.37
2023-03-02T10:19:25.171Z,24.87
2023-03-02T10:22:17.411Z,27.80
2023-03-02T10:25:18.181Z,20.20
2023-03-02T10:28:17.385Z,18.67
2023-03-02T10:31:09.370Z,15.50
2023-03-02T10:33:53.432Z,15.70
2023-03-02T10:36:40.974Z,15.20
2023-03-02T10:39:25.167Z,15.57
2023-03-02T10:42:16.455Z,18.03
2023-03-02T10:45:10.032Z,18.60
2023-03-02T10:48:02.274Z,16.13
2023-03-02T10:50:46.262Z,19.23
2023-03-02T10:53:30.496Z,16.30
2023-03-02T10:56:22.040Z,16.77
2023-03-02T10:59:28.642Z,20.73
2023-03-02T11:02:23.683Z,16.60
2023-03-02T11:05:25.060Z,17.07
2023-03-02T11:08:11.954Z,19.07
2023-03-02T11:11:00.650Z,16.47
2023-03-02T11:13:45.837Z,20.27
2023-03-02T11:16:33.741Z,25.30
2023-03-02T11:19:27.049Z,25.67
2023-03-02T11:22:26.655Z,21.83
2023-03-02T11:25:17.759Z,21.60
2023-03-02T11:28:11.198Z,21.27
2023-03-02T11:30:59.092Z,18.37
2023-03-02T11:33:49.181Z,24.63
2023-03-02T11:36:45.795Z,14.73
2023-03-02T11:39:46.558Z,15.63
2023-03-02T11:42:41.217Z,14.03
2023-03-02T11:45:27.977Z,19.10
2023-03-02T11:48:23.421Z,18.23
2023-03-02T11:51:13.465Z,18.57
2023-03-02T11:54:02.901Z,17.50
2023-03-02T11:56:46.986Z,15.10
2023-03-02T11:59:33.510Z,18.67
2023-03-02T12:02:18.349Z,19.83
2023-03-02T12:05:05.099Z,18.90
2023-03-02T12:07:58.526Z,19.33
2023-03-02T12:10:45.647Z,19.30
2023-03-02T12:13:31.730Z,22.43
2023-03-02T12:16:23.714Z,17.17
2023-03-02T12:19:15.722Z,19.73
2023-03-02T12:22:02.330Z,16.90
2023-03-02T12:24:46.571Z,16.30
2023-03-02T12:27:37.299Z,17.33
2023-03-02T12:30:26.978Z,16.20
2023-03-02T12:33:21.463Z,16.97
2023-03-02T12:36:13.298Z,15.67
2023-03-02T12:39:16.832Z,17.07
2023-03-02T12:42:17.842Z,14.40
2023-03-02T12:45:15.991Z,25.10
2023-03-02T12:48:04.309Z,17.27
2023-03-02T12:50:49.436Z,22.70
2023-03-02T12:53:34.114Z,26.43
2023-03-02T12:56:25.398Z,23.47
2023-03-02T12:59:20.791Z,31.80
2023-03-02T13:02:18.338Z,17.23
2023-03-02T13:05:04.521Z,20.13
2023-03-02T13:07:57.261Z,19.23
2023-03-02T13:10:43.438Z,16.07
2023-03-02T13:13:29.811Z,17.43
2023-03-02T13:16:22.581Z,16.13
2023-03-02T13:19:16.758Z,16.63
2023-03-02T13:22:01.328Z,16.67
2023-03-02T13:24:48.373Z,16.27
2023-03-02T13:27:34.185Z,16.33
2023-03-02T13:30:25.389Z,18.03
2023-03-02T13:33:22.557Z,19.03
2023-03-02T13:36:08.807Z,52.93
2023-03-02T13:38:55.166Z,23.27
2023-03-02T13:41:40.792Z,20.80
2023-03-02T13:44:29.695Z,24.93
2023-03-02T13:47:24.054Z,17.17
2023-03-02T13:50:10.380Z,15.93
2023-03-02T13:52:57.891Z,19.07
2023-03-02T13:55:41.777Z,15.23
2023-03-02T13:58:26.696Z,15.70
2023-03-02T14:01:13.102Z,15.53
2023-03-02T14:03:57.472Z,16.60
2023-03-02T14:06:41.693Z,16.67
2023-03-02T14:09:27.852Z,15.63
2023-03-02T14:12:22.199Z,16.13
2023-03-02T14:15:07.222Z,14.30
2023-03-02T14:17:51.028Z,14.77
2023-03-02T14:20:34.778Z,13.17
2023-03-02T14:23:18.553Z,13.43
2023-03-02T14:26:18.362Z,14.10
2023-03-02T14:29:06.327Z,12.93
2023-03-02T14:31:50.330Z,12.60
2023-03-02T14:34:36.992Z,12.60
2023-03-02T14:37:26.047Z,12.87
2023-03-02T14:40:17.652Z,12.00
2023-03-02T14:43:02.927Z,13.40
2023-03-02T14:45:47.006Z,13.67
2023-03-02T14:48:30.829Z,12.37
2023-03-02T14:51:23.197Z,13.20
2023-03-02T14:54:09.659Z,12.93
2023-03-02T14:56:54.795Z,12.43
2023-03-02T14:59:40.475Z,12.23
2023-03-02T15:02:27.014Z,12.80
2023-03-02T15:05:11.235Z,12.37
2023-03-02T15:07:58.684Z,10.67
2023-03-02T15:10:43.771Z,11.63
2023-03-02T15:13:27.884Z,12.47
2023-03-02T15:16:13.900Z,11.93
2023-03-02T15:18:58.987Z,13.10
2023-03-02T15:21:45.561Z,13.50
2023-03-02T15:24:32.077Z,14.17
2023-03-02T15:27:17.252Z,15.73
2023-03-02T15:30:01.115Z,14.13
2023-03-02T15:32:46.393Z,12.17
2023-03-02T15:35:30.325Z,11.50
2023-03-02T15:38:14.219Z,12.53
2023-03-02T15:40:58.086Z,13.00
2023-03-02T15:43:42.247Z,13.90
2023-03-02T15:46:26.964Z,14.43
2023-03-02T15:49:12.353Z,18.03
2023-03-02T15:51:58.419Z,15.53
2023-03-02T15:54:42.433Z,16.53
2023-03-02T15:57:26.572Z,17.53
2023-03-02T16:00:13.606Z,13.90
2023-03-02T16:02:57.583Z,13.10
2023-03-02T16:05:43.377Z,14.40
2023-03-02T16:08:27.496Z,16.10
2023-03-02T16:11:12.577Z,14.30
2023-03-02T16:13:56.604Z,13.07
2023-03-02T16:16:40.502Z,13.43
2023-03-02T16:19:24.345Z,13.77
2023-03-02T16:22:09.621Z,13.93
2023-03-02T16:24:53.418Z,13.60
2023-03-02T16:27:37.264Z,23.23
2023-03-02T16:30:23.277Z,17.13
2023-03-02T16:33:09.973Z,16.10
2023-03-02T16:35:53.809Z,15.80
2023-03-02T16:38:39.790Z,13.17
2023-03-02T16:41:24.941Z,14.80
2023-03-02T16:44:08.912Z,17.43
2023-03-02T16:46:54.059Z,17.57
2023-03-02T16:49:39.090Z,15.83
2023-03-02T16:52:23.041Z,14.57
2023-03-02T16:55:13.126Z,14.00
2023-03-02T16:57:56.992Z,14.13
2023-03-02T17:00:42.641Z,14.20
2023-03-02T17:03:26.570Z,13.03
2023-03-02T17:06:12.209Z,14.97
2023-03-02T17:08:56.032Z,12.63
2023-03-02T17:11:41.530Z,14.10
2023-03-02T17:14:25.484Z,15.17
2023-03-02T17:17:09.698Z,12.90
2023-03-02T17:19:53.508Z,13.13
2023-03-02T17:22:37.466Z,14.50
2023-03-02T17:25:22.192Z,16.83
2023-03-02T17:28:07.721Z,13.60
2023-03-02T17:30:51.687Z,17.77
2023-03-02T17:33:35.697Z,14.73
2023-03-02T17:36:19.494Z,17.30
2023-03-02T17:39:03.411Z,14.33
2023-03-02T17:41:47.408Z,13.17
2023-03-02T17:44:34.738Z,11.93
2023-03-02T17:47:19.233Z,13.33
2023-03-02T17:50:05.680Z,13.87
2023-03-02T17:52:49.831Z,15.53
2023-03-02T17:55:34.556Z,14.20
2023-03-02T17:58:18.902Z,17.27
2023-03-02T18:01:04.581Z,14.33
2023-03-02T18:03:48.704Z,14.17
2023-03-02T18:06:32.564Z,15.07
2023-03-02T18:09:16.504Z,14.10
2023-03-02T18:12:01.218Z,13.83
2023-03-02T18:14:45.169Z,19.70
2023-03-02T18:17:30.329Z,13.17
2023-03-02T18:20:14.845Z,13.40
2023-03-02T18:22:58.875Z,13.23
2023-03-02T18:25:42.775Z,14.67
2023-03-02T18:28:26.650Z,14.47
2023-03-02T18:31:11.409Z,14.70
2023-03-02T18:33:56.569Z,13.83
2023-03-02T18:36:40.372Z,13.83
2023-03-02T18:39:24.135Z,13.97
2023-03-02T18:42:09.507Z,11.93
2023-03-02T18:44:54.467Z,14.10
2023-03-02T18:47:38.450Z,14.10
2023-03-02T18:50:24.082Z,14.50
2023-03-02T18:53:08.705Z,13.67
2023-03-02T18:55:55.844Z,14.73
2023-03-02T18:58:40.186Z,13.83
2023-03-02T19:01:24.030Z,15.13
2023-03-02T19:04:08.069Z,15.50
2023-03-02T19:06:53.769Z,16.80
2023-03-02T19:09:37.648Z,15.70
2023-03-02T19:12:21.677Z,13.83
2023-03-02T19:15:06.625Z,14.63
2023-03-02T19:17:52.090Z,14.57
2023-03-02T19:20:36.367Z,14.57
2023-03-02T19:23:21.814Z,15.50
2023-03-02T19:26:06.081Z,14.77
2023-03-02T19:28:50.284Z,14.90
2023-03-02T19:31:34.349Z,13.07
2023-03-02T19:34:18.716Z,14.73
2023-03-02T19:37:05.609Z,15.73
2023-03-02T19:39:51.128Z,14.90
2023-03-02T19:42:36.294Z,15.03
2023-03-02T19:45:23.379Z,12.67
2023-03-02T19:48:09.298Z,14.63
2023-03-02T19:50:53.663Z,15.13
2023-03-02T19:53:39.263Z,15.20
2023-03-02T19:56:30.102Z,16.17
2023-03-02T19:59:14.065Z,14.93
2023-03-02T20:01:59.592Z,13.03
2023-03-02T20:04:45.184Z,14.30
2023-03-02T20:07:29.499Z,14.43
2023-03-02T20:10:26.146Z,13.33
2023-03-02T20:13:12.247Z,14.23
2023-03-02T20:15:56.342Z,15.47
2023-03-02T20:18:41.620Z,12.90
2023-03-02T20:21:26.888Z,14.00
2023-03-02T20:24:11.284Z,14.03
2023-03-02T20:26:55.481Z,14.77
2023-03-02T20:29:43.336Z,14.73
2023-03-02T20:32:27.353Z,15.17
2023-03-02T20:35:13.174Z,12.40
2023-03-02T20:37:58.841Z,13.77
2023-03-02T20:40:43.267Z,13.57
2023-03-02T20:43:27.799Z,12.00
2023-03-02T20:46:18.540Z,12.83
2023-03-02T20:49:02.692Z,14.17
2023-03-02T20:51:52.907Z,16.90
2023-03-02T20:54:40.231Z,15.27
2023-03-02T20:57:24.451Z,18.00
2023-03-02T21:00:11.929Z,14.97
2023-03-02T21:02:59.414Z,15.13
2023-03-02T21:05:44.081Z,14.53
2023-03-02T21:08:28.496Z,14.40
2023-03-02T21:11:15.915Z,16.30
2023-03-02T21:14:02.268Z,15.67
2023-03-02T21:16:46.718Z,15.93
2023-03-02T21:19:34.232Z,15.33
2023-03-02T21:22:20.781Z,14.40
2023-03-02T21:25:07.406Z,14.63
2023-03-02T21:27:51.444Z,15.30
2023-03-02T21:30:35.757Z,14.17
2023-03-02T21:33:19.627Z,16.50
2023-03-02T21:36:05.242Z,15.50
2023-03-02T21:38:49.148Z,14.37
2023-03-02T21:41:33.709Z,15.53
2023-03-02T21:44:17.963Z,14.67
2023-03-02T21:47:01.822Z,12.40
2023-03-02T21:49:45.632Z,12.83
2023-03-02T21:52:30.944Z,13.63
2023-03-02T21:55:15.726Z,13.70
2023-03-02T21:57:59.936Z,16.23
2023-03-02T22:00:45.583Z,14.20
2023-03-02T22:03:29.408Z,15.10
2023-03-02T22:06:18.437Z,13.43
2023-03-02T22:09:04.084Z,12.80
2023-03-02T22:11:48.685Z,14.23
2023-03-02T22:14:32.495Z,13.87
2023-03-02T22:17:18.675Z,15.13
2023-03-02T22:20:02.375Z,14.43
2023-03-02T22:22:47.335Z,14.80
2023-03-02T22:25:32.490Z,13.23
2023-03-02T22:28:19.075Z,12.00
2023-03-02T22:31:03.255Z,12.57
2023-03-02T22:33:47.201Z,13.93
2023-03-02T22:36:31.018Z,14.83
2023-03-02T22:39:18.584Z,14.77
2023-03-02T22:42:12.693Z,12.93
2023-03-02T22:45:02.775Z,12.27
2023-03-02T22:47:49.206Z,12.87
2023-03-02T22:50:32.992Z,11.50
2023-03-02T22:53:29.169Z,13.23
2023-03-02T22:56:27.145Z,13.17
2023-03-02T22:59:21.404Z,11.97
2023-03-02T23:02:14.261Z,13.33
2023-03-02T23:04:58.019Z,11.20
2023-03-02T23:07:41.809Z,12.57
2023-03-02T23:10:25.874Z,11.10
2023-03-02T23:13:09.956Z,12.13
2023-03-02T23:15:56.254Z,11.47
2023-03-02T23:18:40.671Z,12.03
2023-03-02T23:21:28.253Z,11.07
2023-03-02T23:24:12.468Z,11.07
2023-03-02T23:26:56.250Z,11.50
2023-03-02T23:29:40.385Z,11.90
2023-03-02T23:32:25.651Z,10.87
2023-03-02T23:35:10.233Z,10.20
2023-03-02T23:37:53.945Z,10.87
2023-03-02T23:40:37.725Z,10.63
2023-03-02T23:43:21.741Z,10.03
2023-03-02T23:46:06.218Z,10.17
2023-03-02T23:48:51.781Z,10.40
2023-03-02T23:51:35.514Z,11.07
2023-03-02T23:54:19.364Z,11.63
2023-03-02T23:57:03.200Z,11.33
2023-03-02T23:59:46.995Z,13.07
